sensor_id;sensor_type;location;lat;lon;timestamp;P1;durP1;ratioP1;P2;durP2;ratioP2
28625;SDS011;18905;42.668;23.364;2023-12-20T00:01:26;85.75;;;39.33;;
28625;SDS011;18905;42.668;23.364;2023-12-20T00:03:51;100.63;;;50.13;;
28625;SDS011;18905;42.668;23.364;2023-12-20T00:06:17;91.53;;;44.40;;
28625;SDS011;18905;42.668;23.364;2023-12-20T00:08:42;82.90;;;41.42;;
28625;SDS011;18905;42.668;23.364;2023-12-20T00:11:09;78.82;;;39.40;;
28625;SDS011;18905;42.668;23.364;2023-12-20T00:13:34;78.03;;;39.53;;
28625;SDS011;18905;42.668;23.364;2023-12-20T00:15:59;76.68;;;38.30;;
28625;SDS011;18905;42.668;23.364;2023-12-20T00:18:25;88.13;;;40.30;;
28625;SDS011;18905;42.668;23.364;2023-12-20T00:20:50;83.68;;;37.42;;
28625;SDS011;18905;42.668;23.364;2023-12-20T00:23:16;82.70;;;38.92;;
28625;SDS011;18905;42.668;23.364;2023-12-20T00:25:41;85.60;;;40.17;;
28625;SDS011;18905;42.668;23.364;2023-12-20T00:28:06;81.18;;;37.50;;
28625;SDS011;18905;42.668;23.364;2023-12-20T00:30:32;66.80;;;31.38;;
28625;SDS011;18905;42.668;23.364;2023-12-20T00:32:57;65.28;;;31.75;;
28625;SDS011;18905;42.668;23.364;2023-12-20T00:35:23;68.85;;;34.47;;
28625;SDS011;18905;42.668;23.364;2023-12-20T00:37:48;69.55;;;31.48;;
28625;SDS011;18905;42.668;23.364;2023-12-20T00:40:14;66.38;;;32.42;;
28625;SDS011;18905;42.668;23.364;2023-12-20T00:42:39;62.80;;;31.42;;
28625;SDS011;18905;42.668;23.364;2023-12-20T00:45:05;62.22;;;31.00;;
28625;SDS011;18905;42.668;23.364;2023-12-20T00:47:31;68.25;;;31.88;;
28625;SDS011;18905;42.668;23.364;2023-12-20T00:49:56;57.42;;;29.45;;
28625;SDS011;18905;42.668;23.364;2023-12-20T00:52:22;54.97;;;26.63;;
28625;SDS011;18905;42.668;23.364;2023-12-20T00:54:48;50.80;;;25.83;;
28625;SDS011;18905;42.668;23.364;2023-12-20T00:57:13;56.70;;;26.73;;
28625;SDS011;18905;42.668;23.364;2023-12-20T00:59:39;58.55;;;29.20;;
28625;SDS011;18905;42.668;23.364;2023-12-20T01:02:04;52.13;;;26.42;;
28625;SDS011;18905;42.668;23.364;2023-12-20T01:04:30;64.95;;;30.67;;
28625;SDS011;18905;42.668;23.364;2023-12-20T01:06:55;63.88;;;30.27;;
28625;SDS011;18905;42.668;23.364;2023-12-20T01:09:20;62.03;;;29.83;;
28625;SDS011;18905;42.668;23.364;2023-12-20T01:11:48;66.13;;;31.30;;
28625;SDS011;18905;42.668;23.364;2023-12-20T01:14:14;62.03;;;29.95;;
28625;SDS011;18905;42.668;23.364;2023-12-20T01:16:40;63.08;;;31.83;;
28625;SDS011;18905;42.668;23.364;2023-12-20T01:19:05;58.53;;;29.73;;
28625;SDS011;18905;42.668;23.364;2023-12-20T01:21:30;84.82;;;40.72;;
28625;SDS011;18905;42.668;23.364;2023-12-20T01:23:56;160.80;;;71.75;;
28625;SDS011;18905;42.668;23.364;2023-12-20T01:26:21;246.00;;;108.60;;
28625;SDS011;18905;42.668;23.364;2023-12-20T01:28:47;285.83;;;131.52;;
28625;SDS011;18905;42.668;23.364;2023-12-20T01:31:12;311.05;;;144.10;;
28625;SDS011;18905;42.668;23.364;2023-12-20T01:33:38;333.63;;;153.27;;
28625;SDS011;18905;42.668;23.364;2023-12-20T01:36:04;327.05;;;153.00;;
28625;SDS011;18905;42.668;23.364;2023-12-20T01:38:29;332.63;;;156.50;;
28625;SDS011;18905;42.668;23.364;2023-12-20T01:40:54;334.90;;;157.88;;
28625;SDS011;18905;42.668;23.364;2023-12-20T01:43:20;344.60;;;157.20;;
28625;SDS011;18905;42.668;23.364;2023-12-20T01:45:47;341.98;;;155.77;;
28625;SDS011;18905;42.668;23.364;2023-12-20T01:48:13;348.65;;;159.80;;
28625;SDS011;18905;42.668;23.364;2023-12-20T01:50:41;340.23;;;157.15;;
28625;SDS011;18905;42.668;23.364;2023-12-20T01:53:08;343.95;;;156.43;;
28625;SDS011;18905;42.668;23.364;2023-12-20T01:55:36;341.08;;;155.82;;
28625;SDS011;18905;42.668;23.364;2023-12-20T01:58:04;333.67;;;157.02;;
28625;SDS011;18905;42.668;23.364;2023-12-20T02:00:30;336.38;;;156.23;;
28625;SDS011;18905;42.668;23.364;2023-12-20T02:02:56;332.95;;;152.68;;
28625;SDS011;18905;42.668;23.364;2023-12-20T02:05:25;334.25;;;153.60;;
28625;SDS011;18905;42.668;23.364;2023-12-20T02:07:52;316.73;;;146.32;;
28625;SDS011;18905;42.668;23.364;2023-12-20T02:10:18;319.80;;;147.20;;
28625;SDS011;18905;42.668;23.364;2023-12-20T02:12:43;317.77;;;146.48;;
28625;SDS011;18905;42.668;23.364;2023-12-20T02:15:09;322.92;;;150.88;;
28625;SDS011;18905;42.668;23.364;2023-12-20T02:17:36;344.52;;;157.40;;
28625;SDS011;18905;42.668;23.364;2023-12-20T02:20:01;347.98;;;154.52;;
28625;SDS011;18905;42.668;23.364;2023-12-20T02:22:27;326.98;;;150.80;;
28625;SDS011;18905;42.668;23.364;2023-12-20T02:24:53;334.90;;;154.65;;
28625;SDS011;18905;42.668;23.364;2023-12-20T02:27:18;341.05;;;154.20;;
28625;SDS011;18905;42.668;23.364;2023-12-20T02:29:44;320.58;;;143.93;;
28625;SDS011;18905;42.668;23.364;2023-12-20T02:32:12;304.13;;;143.57;;
28625;SDS011;18905;42.668;23.364;2023-12-20T02:34:37;322.02;;;143.52;;
28625;SDS011;18905;42.668;23.364;2023-12-20T02:37:03;298.52;;;136.05;;
28625;SDS011;18905;42.668;23.364;2023-12-20T02:39:28;301.13;;;135.32;;
28625;SDS011;18905;42.668;23.364;2023-12-20T02:41:54;290.67;;;128.75;;
28625;SDS011;18905;42.668;23.364;2023-12-20T02:44:19;286.05;;;124.20;;
28625;SDS011;18905;42.668;23.364;2023-12-20T02:46:44;291.70;;;127.80;;
28625;SDS011;18905;42.668;23.364;2023-12-20T02:49:10;304.75;;;127.60;;
28625;SDS011;18905;42.668;23.364;2023-12-20T02:51:35;321.05;;;123.07;;
28625;SDS011;18905;42.668;23.364;2023-12-20T02:54:03;313.20;;;119.70;;
28625;SDS011;18905;42.668;23.364;2023-12-20T02:56:29;291.85;;;115.80;;
28625;SDS011;18905;42.668;23.364;2023-12-20T02:58:54;293.42;;;119.88;;
28625;SDS011;18905;42.668;23.364;2023-12-20T03:01:20;304.35;;;117.72;;
28625;SDS011;18905;42.668;23.364;2023-12-20T03:03:45;342.90;;;112.47;;
28625;SDS011;18905;42.668;23.364;2023-12-20T03:06:11;320.08;;;115.88;;
28625;SDS011;18905;42.668;23.364;2023-12-20T03:08:36;323.92;;;107.53;;
28625;SDS011;18905;42.668;23.364;2023-12-20T03:11:02;344.55;;;106.28;;
28625;SDS011;18905;42.668;23.364;2023-12-20T03:13:27;432.70;;;112.88;;
28625;SDS011;18905;42.668;23.364;2023-12-20T03:15:52;296.98;;;91.75;;
28625;SDS011;18905;42.668;23.364;2023-12-20T03:18:18;315.25;;;98.00;;
28625;SDS011;18905;42.668;23.364;2023-12-20T03:20:43;309.08;;;96.68;;
28625;SDS011;18905;42.668;23.364;2023-12-20T03:23:09;359.52;;;91.82;;
28625;SDS011;18905;42.668;23.364;2023-12-20T03:25:34;438.65;;;97.93;;
28625;SDS011;18905;42.668;23.364;2023-12-20T03:27:59;328.23;;;93.50;;
28625;SDS011;18905;42.668;23.364;2023-12-20T03:30:25;310.58;;;89.32;;
28625;SDS011;18905;42.668;23.364;2023-12-20T03:32:50;284.60;;;87.57;;
28625;SDS011;18905;42.668;23.364;2023-12-20T03:35:16;366.83;;;96.78;;
28625;SDS011;18905;42.668;23.364;2023-12-20T03:37:41;493.67;;;109.60;;
28625;SDS011;18905;42.668;23.364;2023-12-20T03:40:07;337.65;;;93.80;;
28625;SDS011;18905;42.668;23.364;2023-12-20T03:42:32;271.15;;;92.90;;
28625;SDS011;18905;42.668;23.364;2023-12-20T03:44:58;239.70;;;84.32;;
28625;SDS011;18905;42.668;23.364;2023-12-20T03:47:23;213.73;;;87.47;;
28625;SDS011;18905;42.668;23.364;2023-12-20T03:49:49;250.82;;;94.55;;
28625;SDS011;18905;42.668;23.364;2023-12-20T03:52:14;200.50;;;86.13;;
28625;SDS011;18905;42.668;23.364;2023-12-20T03:54:39;204.68;;;84.32;;
28625;SDS011;18905;42.668;23.364;2023-12-20T03:57:06;194.60;;;82.45;;
28625;SDS011;18905;42.668;23.364;2023-12-20T03:59:35;180.32;;;75.53;;
28625;SDS011;18905;42.668;23.364;2023-12-20T04:02:01;188.85;;;81.65;;
28625;SDS011;18905;42.668;23.364;2023-12-20T04:04:27;175.63;;;77.38;;
28625;SDS011;18905;42.668;23.364;2023-12-20T04:06:52;216.15;;;88.03;;
28625;SDS011;18905;42.668;23.364;2023-12-20T04:09:18;209.48;;;87.53;;
28625;SDS011;18905;42.668;23.364;2023-12-20T04:11:43;203.45;;;86.90;;
28625;SDS011;18905;42.668;23.364;2023-12-20T04:14:08;199.45;;;88.40;;
28625;SDS011;18905;42.668;23.364;2023-12-20T04:16:35;194.30;;;84.80;;
28625;SDS011;18905;42.668;23.364;2023-12-20T04:19:00;196.38;;;83.43;;
28625;SDS011;18905;42.668;23.364;2023-12-20T04:21:26;199.32;;;82.57;;
28625;SDS011;18905;42.668;23.364;2023-12-20T04:23:51;217.23;;;85.75;;
28625;SDS011;18905;42.668;23.364;2023-12-20T04:26:16;191.18;;;82.63;;
28625;SDS011;18905;42.668;23.364;2023-12-20T04:28:42;181.95;;;77.32;;
28625;SDS011;18905;42.668;23.364;2023-12-20T04:31:07;269.13;;;88.30;;
28625;SDS011;18905;42.668;23.364;2023-12-20T04:33:33;255.80;;;88.10;;
28625;SDS011;18905;42.668;23.364;2023-12-20T04:35:58;388.98;;;94.15;;
28625;SDS011;18905;42.668;23.364;2023-12-20T04:38:25;470.77;;;101.80;;
28625;SDS011;18905;42.668;23.364;2023-12-20T04:40:50;331.70;;;103.43;;
28625;SDS011;18905;42.668;23.364;2023-12-20T04:43:16;285.90;;;101.28;;
28625;SDS011;18905;42.668;23.364;2023-12-20T04:45:41;332.02;;;100.00;;
28625;SDS011;18905;42.668;23.364;2023-12-20T04:48:07;346.70;;;101.63;;
28625;SDS011;18905;42.668;23.364;2023-12-20T04:50:32;380.10;;;116.50;;
28625;SDS011;18905;42.668;23.364;2023-12-20T04:52:58;271.98;;;95.15;;
28625;SDS011;18905;42.668;23.364;2023-12-20T04:55:23;311.02;;;98.13;;
28625;SDS011;18905;42.668;23.364;2023-12-20T04:57:49;331.35;;;100.13;;
28625;SDS011;18905;42.668;23.364;2023-12-20T05:00:14;371.90;;;100.40;;
28625;SDS011;18905;42.668;23.364;2023-12-20T05:02:40;197.75;;;76.00;;
28625;SDS011;18905;42.668;23.364;2023-12-20T05:05:06;338.38;;;99.93;;
28625;SDS011;18905;42.668;23.364;2023-12-20T05:07:32;343.02;;;93.90;;
28625;SDS011;18905;42.668;23.364;2023-12-20T05:09:58;225.20;;;85.45;;
28625;SDS011;18905;42.668;23.364;2023-12-20T05:12:24;353.90;;;99.47;;
28625;SDS011;18905;42.668;23.364;2023-12-20T05:14:49;252.13;;;82.72;;
28625;SDS011;18905;42.668;23.364;2023-12-20T05:17:14;327.38;;;86.55;;
28625;SDS011;18905;42.668;23.364;2023-12-20T05:19:40;297.83;;;83.20;;
28625;SDS011;18905;42.668;23.364;2023-12-20T05:22:05;292.73;;;77.03;;
28625;SDS011;18905;42.668;23.364;2023-12-20T05:24:30;365.90;;;73.97;;
28625;SDS011;18905;42.668;23.364;2023-12-20T05:26:56;404.02;;;83.10;;
28625;SDS011;18905;42.668;23.364;2023-12-20T05:29:21;337.77;;;76.22;;
28625;SDS011;18905;42.668;23.364;2023-12-20T05:31:47;191.07;;;62.50;;
28625;SDS011;18905;42.668;23.364;2023-12-20T05:34:12;241.43;;;64.35;;
28625;SDS011;18905;42.668;23.364;2023-12-20T05:36:37;310.00;;;61.80;;
28625;SDS011;18905;42.668;23.364;2023-12-20T05:39:04;252.60;;;59.53;;
28625;SDS011;18905;42.668;23.364;2023-12-20T05:41:30;340.30;;;66.63;;
28625;SDS011;18905;42.668;23.364;2023-12-20T05:43:55;211.25;;;56.03;;
28625;SDS011;18905;42.668;23.364;2023-12-20T05:46:23;148.32;;;52.20;;
28625;SDS011;18905;42.668;23.364;2023-12-20T05:48:48;236.15;;;58.67;;
28625;SDS011;18905;42.668;23.364;2023-12-20T05:51:14;240.93;;;61.08;;
28625;SDS011;18905;42.668;23.364;2023-12-20T05:53:39;176.38;;;53.85;;
28625;SDS011;18905;42.668;23.364;2023-12-20T05:56:05;433.80;;;68.93;;
28625;SDS011;18905;42.668;23.364;2023-12-20T05:58:31;239.80;;;55.58;;
28625;SDS011;18905;42.668;23.364;2023-12-20T06:00:57;438.15;;;62.42;;
28625;SDS011;18905;42.668;23.364;2023-12-20T06:03:22;222.25;;;53.13;;
28625;SDS011;18905;42.668;23.364;2023-12-20T06:05:48;270.10;;;55.30;;
28625;SDS011;18905;42.668;23.364;2023-12-20T06:08:14;256.08;;;58.67;;
28625;SDS011;18905;42.668;23.364;2023-12-20T06:10:39;159.77;;;49.38;;
28625;SDS011;18905;42.668;23.364;2023-12-20T06:13:05;134.05;;;47.35;;
28625;SDS011;18905;42.668;23.364;2023-12-20T06:15:31;124.05;;;47.33;;
28625;SDS011;18905;42.668;23.364;2023-12-20T06:17:57;171.73;;;47.78;;
28625;SDS011;18905;42.668;23.364;2023-12-20T06:20:22;201.88;;;51.47;;
28625;SDS011;18905;42.668;23.364;2023-12-20T06:22:48;125.30;;;47.45;;
28625;SDS011;18905;42.668;23.364;2023-12-20T06:25:13;122.55;;;46.95;;
28625;SDS011;18905;42.668;23.364;2023-12-20T06:27:39;278.33;;;60.63;;
28625;SDS011;18905;42.668;23.364;2023-12-20T06:30:06;140.95;;;49.40;;
28625;SDS011;18905;42.668;23.364;2023-12-20T06:32:32;125.75;;;46.47;;
28625;SDS011;18905;42.668;23.364;2023-12-20T06:34:59;262.05;;;54.13;;
28625;SDS011;18905;42.668;23.364;2023-12-20T06:37:24;117.30;;;44.22;;
28625;SDS011;18905;42.668;23.364;2023-12-20T06:39:50;207.85;;;50.92;;
28625;SDS011;18905;42.668;23.364;2023-12-20T06:42:15;232.07;;;47.38;;
28625;SDS011;18905;42.668;23.364;2023-12-20T06:44:40;243.07;;;51.17;;
28625;SDS011;18905;42.668;23.364;2023-12-20T06:47:06;269.25;;;49.90;;
28625;SDS011;18905;42.668;23.364;2023-12-20T06:49:33;318.52;;;56.35;;
28625;SDS011;18905;42.668;23.364;2023-12-20T06:51:58;192.05;;;53.30;;
28625;SDS011;18905;42.668;23.364;2023-12-20T06:54:24;157.15;;;48.70;;
28625;SDS011;18905;42.668;23.364;2023-12-20T06:56:49;152.25;;;46.72;;
28625;SDS011;18905;42.668;23.364;2023-12-20T06:59:14;168.38;;;48.35;;
28625;SDS011;18905;42.668;23.364;2023-12-20T07:01:40;114.40;;;45.25;;
28625;SDS011;18905;42.668;23.364;2023-12-20T07:04:06;113.60;;;43.60;;
28625;SDS011;18905;42.668;23.364;2023-12-20T07:06:31;179.43;;;48.45;;
28625;SDS011;18905;42.668;23.364;2023-12-20T07:08:57;138.20;;;46.35;;
28625;SDS011;18905;42.668;23.364;2023-12-20T07:11:22;142.25;;;48.35;;
28625;SDS011;18905;42.668;23.364;2023-12-20T07:13:48;122.97;;;45.28;;
28625;SDS011;18905;42.668;23.364;2023-12-20T07:16:14;122.10;;;45.13;;
28625;SDS011;18905;42.668;23.364;2023-12-20T07:18:40;108.05;;;44.70;;
28625;SDS011;18905;42.668;23.364;2023-12-20T07:21:05;120.80;;;47.65;;
28625;SDS011;18905;42.668;23.364;2023-12-20T07:23:32;99.38;;;42.75;;
28625;SDS011;18905;42.668;23.364;2023-12-20T07:25:58;115.05;;;43.15;;
28625;SDS011;18905;42.668;23.364;2023-12-20T07:28:23;103.88;;;41.45;;
28625;SDS011;18905;42.668;23.364;2023-12-20T07:30:49;104.70;;;42.30;;
28625;SDS011;18905;42.668;23.364;2023-12-20T07:33:15;100.25;;;43.78;;
28625;SDS011;18905;42.668;23.364;2023-12-20T07:35:40;96.60;;;40.35;;
28625;SDS011;18905;42.668;23.364;2023-12-20T07:38:06;107.28;;;43.05;;
28625;SDS011;18905;42.668;23.364;2023-12-20T07:40:31;108.13;;;42.83;;
28625;SDS011;18905;42.668;23.364;2023-12-20T07:42:57;123.70;;;44.83;;
28625;SDS011;18905;42.668;23.364;2023-12-20T07:45:23;117.43;;;43.40;;
28625;SDS011;18905;42.668;23.364;2023-12-20T07:47:48;119.10;;;46.53;;
28625;SDS011;18905;42.668;23.364;2023-12-20T07:50:15;110.30;;;43.38;;
28625;SDS011;18905;42.668;23.364;2023-12-20T07:52:40;108.72;;;43.63;;
28625;SDS011;18905;42.668;23.364;2023-12-20T07:55:06;128.65;;;44.83;;
28625;SDS011;18905;42.668;23.364;2023-12-20T07:57:31;116.55;;;46.35;;
28625;SDS011;18905;42.668;23.364;2023-12-20T07:59:57;117.85;;;47.13;;
28625;SDS011;18905;42.668;23.364;2023-12-20T08:02:22;129.55;;;49.50;;
28625;SDS011;18905;42.668;23.364;2023-12-20T08:04:48;124.05;;;46.50;;
28625;SDS011;18905;42.668;23.364;2023-12-20T08:07:13;125.10;;;48.72;;
28625;SDS011;18905;42.668;23.364;2023-12-20T08:09:39;124.05;;;46.83;;
28625;SDS011;18905;42.668;23.364;2023-12-20T08:12:05;140.30;;;51.67;;
28625;SDS011;18905;42.668;23.364;2023-12-20T08:14:30;149.25;;;50.20;;
28625;SDS011;18905;42.668;23.364;2023-12-20T08:16:56;147.43;;;51.75;;
28625;SDS011;18905;42.668;23.364;2023-12-20T08:19:22;151.27;;;57.63;;
28625;SDS011;18905;42.668;23.364;2023-12-20T08:21:47;144.68;;;54.38;;
28625;SDS011;18905;42.668;23.364;2023-12-20T08:24:12;145.65;;;53.47;;
28625;SDS011;18905;42.668;23.364;2023-12-20T08:26:38;139.07;;;50.08;;
28625;SDS011;18905;42.668;23.364;2023-12-20T08:29:03;174.82;;;57.53;;
28625;SDS011;18905;42.668;23.364;2023-12-20T08:31:28;171.60;;;59.75;;
28625;SDS011;18905;42.668;23.364;2023-12-20T08:33:54;157.55;;;54.35;;
28625;SDS011;18905;42.668;23.364;2023-12-20T08:36:20;192.20;;;58.75;;
28625;SDS011;18905;42.668;23.364;2023-12-20T08:38:47;189.82;;;60.00;;
28625;SDS011;18905;42.668;23.364;2023-12-20T08:41:13;166.35;;;60.35;;
28625;SDS011;18905;42.668;23.364;2023-12-20T08:43:38;179.57;;;60.47;;
28625;SDS011;18905;42.668;23.364;2023-12-20T08:46:06;162.45;;;58.17;;
28625;SDS011;18905;42.668;23.364;2023-12-20T08:48:34;168.88;;;56.92;;
28625;SDS011;18905;42.668;23.364;2023-12-20T08:51:00;163.77;;;53.75;;
28625;SDS011;18905;42.668;23.364;2023-12-20T08:53:25;171.82;;;53.63;;
28625;SDS011;18905;42.668;23.364;2023-12-20T08:55:50;197.02;;;59.20;;
28625;SDS011;18905;42.668;23.364;2023-12-20T08:58:16;178.45;;;58.10;;
28625;SDS011;18905;42.668;23.364;2023-12-20T09:00:42;194.35;;;58.28;;
28625;SDS011;18905;42.668;23.364;2023-12-20T09:03:07;186.60;;;57.22;;
28625;SDS011;18905;42.668;23.364;2023-12-20T09:05:33;174.35;;;54.88;;
28625;SDS011;18905;42.668;23.364;2023-12-20T09:07:58;222.48;;;55.63;;
28625;SDS011;18905;42.668;23.364;2023-12-20T09:10:23;185.40;;;56.28;;
28625;SDS011;18905;42.668;23.364;2023-12-20T09:12:49;181.43;;;57.75;;
28625;SDS011;18905;42.668;23.364;2023-12-20T09:15:16;179.10;;;57.50;;
28625;SDS011;18905;42.668;23.364;2023-12-20T09:17:41;188.77;;;59.10;;
28625;SDS011;18905;42.668;23.364;2023-12-20T09:20:07;182.50;;;58.10;;
28625;SDS011;18905;42.668;23.364;2023-12-20T09:22:33;184.88;;;60.28;;
28625;SDS011;18905;42.668;23.364;2023-12-20T09:24:59;185.45;;;61.10;;
28625;SDS011;18905;42.668;23.364;2023-12-20T09:27:25;191.60;;;61.40;;
28625;SDS011;18905;42.668;23.364;2023-12-20T09:29:50;179.43;;;61.40;;
28625;SDS011;18905;42.668;23.364;2023-12-20T09:32:15;182.07;;;59.17;;
28625;SDS011;18905;42.668;23.364;2023-12-20T09:34:41;193.27;;;60.67;;
28625;SDS011;18905;42.668;23.364;2023-12-20T09:37:07;189.85;;;62.75;;
28625;SDS011;18905;42.668;23.364;2023-12-20T09:39:32;180.77;;;60.13;;
28625;SDS011;18905;42.668;23.364;2023-12-20T09:42:02;209.95;;;60.83;;
28625;SDS011;18905;42.668;23.364;2023-12-20T09:44:29;170.45;;;58.20;;
28625;SDS011;18905;42.668;23.364;2023-12-20T09:46:56;190.48;;;60.63;;
28625;SDS011;18905;42.668;23.364;2023-12-20T09:49:22;221.00;;;62.63;;
28625;SDS011;18905;42.668;23.364;2023-12-20T09:51:47;201.15;;;62.63;;
28625;SDS011;18905;42.668;23.364;2023-12-20T09:54:16;183.45;;;62.33;;
28625;SDS011;18905;42.668;23.364;2023-12-20T09:56:43;192.43;;;61.80;;
28625;SDS011;18905;42.668;23.364;2023-12-20T09:59:09;190.73;;;61.20;;
28625;SDS011;18905;42.668;23.364;2023-12-20T10:01:35;186.07;;;63.85;;
28625;SDS011;18905;42.668;23.364;2023-12-20T10:04:01;191.73;;;64.22;;
28625;SDS011;18905;42.668;23.364;2023-12-20T10:06:36;188.52;;;64.93;;
28625;SDS011;18905;42.668;23.364;2023-12-20T10:09:02;183.57;;;65.47;;
28625;SDS011;18905;42.668;23.364;2023-12-20T10:11:29;165.20;;;61.90;;
28625;SDS011;18905;42.668;23.364;2023-12-20T10:13:58;177.32;;;65.18;;
28625;SDS011;18905;42.668;23.364;2023-12-20T10:16:26;166.23;;;59.47;;
28625;SDS011;18905;42.668;23.364;2023-12-20T10:18:52;163.07;;;58.70;;
28625;SDS011;18905;42.668;23.364;2023-12-20T10:21:18;154.07;;;62.70;;
28625;SDS011;18905;42.668;23.364;2023-12-20T10:23:44;159.90;;;60.75;;
28625;SDS011;18905;42.668;23.364;2023-12-20T10:26:10;164.35;;;61.20;;
28625;SDS011;18905;42.668;23.364;2023-12-20T10:28:44;149.68;;;57.65;;
28625;SDS011;18905;42.668;23.364;2023-12-20T10:31:09;138.27;;;54.95;;
28625;SDS011;18905;42.668;23.364;2023-12-20T10:33:35;141.10;;;57.72;;
28625;SDS011;18905;42.668;23.364;2023-12-20T10:36:00;145.45;;;57.63;;
28625;SDS011;18905;42.668;23.364;2023-12-20T10:38:26;132.75;;;55.47;;
28625;SDS011;18905;42.668;23.364;2023-12-20T10:40:54;142.02;;;57.03;;
28625;SDS011;18905;42.668;23.364;2023-12-20T10:43:22;146.43;;;55.42;;
28625;SDS011;18905;42.668;23.364;2023-12-20T10:45:51;146.85;;;55.38;;
28625;SDS011;18905;42.668;23.364;2023-12-20T10:48:17;157.95;;;61.72;;
28625;SDS011;18905;42.668;23.364;2023-12-20T10:50:43;148.30;;;62.03;;
28625;SDS011;18905;42.668;23.364;2023-12-20T10:53:10;147.45;;;59.05;;
28625;SDS011;18905;42.668;23.364;2023-12-20T10:55:37;142.52;;;57.10;;
28625;SDS011;18905;42.668;23.364;2023-12-20T10:58:08;149.95;;;58.50;;
28625;SDS011;18905;42.668;23.364;2023-12-20T11:00:36;142.73;;;57.17;;
28625;SDS011;18905;42.668;23.364;2023-12-20T11:03:06;140.95;;;57.40;;
28625;SDS011;18905;42.668;23.364;2023-12-20T11:05:42;143.80;;;58.47;;
28625;SDS011;18905;42.668;23.364;2023-12-20T11:08:16;134.55;;;56.45;;
28625;SDS011;18905;42.668;23.364;2023-12-20T11:10:58;140.85;;;56.03;;
28625;SDS011;18905;42.668;23.364;2023-12-20T11:13:27;137.40;;;56.30;;
28625;SDS011;18905;42.668;23.364;2023-12-20T11:15:57;135.27;;;55.17;;
28625;SDS011;18905;42.668;23.364;2023-12-20T11:18:30;140.18;;;56.70;;
28625;SDS011;18905;42.668;23.364;2023-12-20T11:21:00;146.98;;;58.78;;
28625;SDS011;18905;42.668;23.364;2023-12-20T11:23:29;156.10;;;60.33;;
28625;SDS011;18905;42.668;23.364;2023-12-20T11:25:56;156.95;;;62.45;;
28625;SDS011;18905;42.668;23.364;2023-12-20T11:28:24;147.57;;;57.83;;
28625;SDS011;18905;42.668;23.364;2023-12-20T11:30:52;155.77;;;61.72;;
28625;SDS011;18905;42.668;23.364;2023-12-20T11:33:21;156.50;;;63.08;;
28625;SDS011;18905;42.668;23.364;2023-12-20T11:35:48;151.25;;;61.05;;
28625;SDS011;18905;42.668;23.364;2023-12-20T11:38:14;153.38;;;61.85;;
28625;SDS011;18905;42.668;23.364;2023-12-20T11:40:41;156.90;;;62.13;;
28625;SDS011;18905;42.668;23.364;2023-12-20T11:43:07;169.07;;;66.03;;
28625;SDS011;18905;42.668;23.364;2023-12-20T11:45:33;174.27;;;68.80;;
28625;SDS011;18905;42.668;23.364;2023-12-20T11:48:00;169.20;;;68.25;;
28625;SDS011;18905;42.668;23.364;2023-12-20T11:50:27;162.73;;;66.32;;
28625;SDS011;18905;42.668;23.364;2023-12-20T11:52:53;175.93;;;66.30;;
28625;SDS011;18905;42.668;23.364;2023-12-20T11:55:20;181.73;;;68.38;;
28625;SDS011;18905;42.668;23.364;2023-12-20T11:57:46;191.77;;;72.43;;
28625;SDS011;18905;42.668;23.364;2023-12-20T12:00:12;205.10;;;74.63;;
28625;SDS011;18905;42.668;23.364;2023-12-20T12:02:39;184.77;;;69.85;;
28625;SDS011;18905;42.668;23.364;2023-12-20T12:05:04;188.48;;;68.82;;
28625;SDS011;18905;42.668;23.364;2023-12-20T12:07:30;199.52;;;71.40;;
28625;SDS011;18905;42.668;23.364;2023-12-20T12:09:56;192.43;;;71.43;;
28625;SDS011;18905;42.668;23.364;2023-12-20T12:12:22;183.05;;;71.55;;
28625;SDS011;18905;42.668;23.364;2023-12-20T12:14:48;193.45;;;72.25;;
28625;SDS011;18905;42.668;23.364;2023-12-20T12:17:14;131.68;;;53.97;;
28625;SDS011;18905;42.668;23.364;2023-12-20T12:19:41;142.63;;;57.67;;
28625;SDS011;18905;42.668;23.364;2023-12-20T12:22:07;115.82;;;51.20;;
28625;SDS011;18905;42.668;23.364;2023-12-20T12:24:40;137.98;;;62.45;;
28625;SDS011;18905;42.668;23.364;2023-12-20T12:27:07;150.02;;;64.72;;
28625;SDS011;18905;42.668;23.364;2023-12-20T12:29:33;161.35;;;64.90;;
28625;SDS011;18905;42.668;23.364;2023-12-20T12:31:59;134.80;;;58.80;;
28625;SDS011;18905;42.668;23.364;2023-12-20T12:34:27;143.98;;;60.03;;
28625;SDS011;18905;42.668;23.364;2023-12-20T12:36:53;144.32;;;58.13;;
28625;SDS011;18905;42.668;23.364;2023-12-20T12:39:18;142.85;;;60.13;;
28625;SDS011;18905;42.668;23.364;2023-12-20T12:41:44;129.57;;;54.10;;
28625;SDS011;18905;42.668;23.364;2023-12-20T12:44:10;130.32;;;57.45;;
28625;SDS011;18905;42.668;23.364;2023-12-20T12:46:35;150.85;;;60.25;;
28625;SDS011;18905;42.668;23.364;2023-12-20T12:49:01;101.53;;;41.65;;
28625;SDS011;18905;42.668;23.364;2023-12-20T12:51:26;181.77;;;68.93;;
28625;SDS011;18905;42.668;23.364;2023-12-20T12:53:52;166.32;;;68.18;;
28625;SDS011;18905;42.668;23.364;2023-12-20T12:56:18;175.70;;;68.88;;
28625;SDS011;18905;42.668;23.364;2023-12-20T12:58:43;163.07;;;64.10;;
28625;SDS011;18905;42.668;23.364;2023-12-20T13:01:09;171.63;;;66.15;;
28625;SDS011;18905;42.668;23.364;2023-12-20T13:03:35;157.55;;;58.97;;
28625;SDS011;18905;42.668;23.364;2023-12-20T13:06:00;179.25;;;65.35;;
28625;SDS011;18905;42.668;23.364;2023-12-20T13:08:26;187.82;;;67.90;;
28625;SDS011;18905;42.668;23.364;2023-12-20T13:10:51;177.63;;;63.17;;
28625;SDS011;18905;42.668;23.364;2023-12-20T13:13:17;184.85;;;67.60;;
28625;SDS011;18905;42.668;23.364;2023-12-20T13:15:42;184.57;;;68.85;;
28625;SDS011;18905;42.668;23.364;2023-12-20T13:18:13;186.18;;;64.40;;
28625;SDS011;18905;42.668;23.364;2023-12-20T13:20:38;174.57;;;61.72;;
28625;SDS011;18905;42.668;23.364;2023-12-20T13:23:05;186.38;;;61.38;;
28625;SDS011;18905;42.668;23.364;2023-12-20T13:25:30;175.15;;;61.30;;
28625;SDS011;18905;42.668;23.364;2023-12-20T13:27:56;185.23;;;65.07;;
28625;SDS011;18905;42.668;23.364;2023-12-20T13:30:21;182.18;;;66.45;;
28625;SDS011;18905;42.668;23.364;2023-12-20T13:32:48;183.10;;;68.50;;
28625;SDS011;18905;42.668;23.364;2023-12-20T13:35:14;203.95;;;72.40;;
28625;SDS011;18905;42.668;23.364;2023-12-20T13:37:39;184.50;;;67.05;;
28625;SDS011;18905;42.668;23.364;2023-12-20T13:40:05;215.02;;;71.60;;
28625;SDS011;18905;42.668;23.364;2023-12-20T13:42:31;214.65;;;68.97;;
28625;SDS011;18905;42.668;23.364;2023-12-20T13:44:56;194.27;;;66.00;;
28625;SDS011;18905;42.668;23.364;2023-12-20T13:47:21;207.38;;;72.53;;
28625;SDS011;18905;42.668;23.364;2023-12-20T13:49:47;204.70;;;67.65;;